createdAt,value
2017-07-03T00:00:02.416Z,99.99
2017-07-03T00:01:02.094Z,99.99
2017-07-03T00:02:02.399Z,99.99
2017-07-03T00:03:02.070Z,99.99
2017-07-03T00:04:02.403Z,99.99
2017-07-03T00:05:02.406Z,99.99
2017-07-03T00:06:02.378Z,99.99
2017-07-03T00:07:02.056Z,99.99
2017-07-03T00:08:02.377Z,99.99
2017-07-03T00:09:02.370Z,99.99
2017-07-03T00:10:02.358Z,99.99
2017-07-03T00:11:02.032Z,99.99
2017-07-03T00:12:02.027Z,99.99
2017-07-03T00:13:02.340Z,99.99
2017-07-03T00:14:02.346Z,99.99
2017-07-03T00:15:02.006Z,99.99
2017-07-03T00:16:02.325Z,99.99
2017-07-03T00:17:02.317Z,99.99
2017-07-03T00:18:01.989Z,99.99
2017-07-03T00:19:02.307Z,99.99
2017-07-03T00:20:01.983Z,99.99
2017-07-03T00:21:02.295Z,99.99
2017-07-03T00:22:02.289Z,99.99
2017-07-03T00:23:01.986Z,99.99
2017-07-03T00:24:01.961Z,99.99
2017-07-03T00:25:01.956Z,99.99
2017-07-03T00:26:02.267Z,99.99
2017-07-03T00:27:02.279Z,99.99
2017-07-03T00:28:01.939Z,99.99
2017-07-03T00:29:02.250Z,99.99
2017-07-03T00:30:02.248Z,99.99
2017-07-03T00:31:02.261Z,99.99
2017-07-03T00:32:01.916Z,99.99
2017-07-03T00:33:01.907Z,99.99
2017-07-03T00:34:02.229Z,99.99
2017-07-03T00:35:02.220Z,99.99
2017-07-03T00:36:02.212Z,99.99
2017-07-03T00:37:02.368Z,99.99
2017-07-03T00:38:01.880Z,99.99
2017-07-03T00:39:02.196Z,99.99
2017-07-03T00:40:02.192Z,99.99
2017-07-03T00:41:02.182Z,99.99
2017-07-03T00:42:02.181Z,99.99
2017-07-03T00:43:02.178Z,99.99
2017-07-03T00:44:02.214Z,99.99
2017-07-03T00:45:02.180Z,99.99
2017-07-03T00:46:02.159Z,99.99
2017-07-03T00:47:02.165Z,99.99
2017-07-03T00:48:02.149Z,99.99
2017-07-03T00:49:01.835Z,99.99
2017-07-03T00:50:02.135Z,99.99
2017-07-03T00:51:02.132Z,99.99
2017-07-03T00:52:02.127Z,99.99
2017-07-03T00:53:01.822Z,99.99
2017-07-03T00:54:02.116Z,99.99
2017-07-03T00:55:02.112Z,99.99
2017-07-03T00:56:01.783Z,99.99
2017-07-03T00:57:02.097Z,99.99
2017-07-03T00:58:02.129Z,99.99
2017-07-03T00:59:01.783Z,99.99
2017-07-03T01:00:02.081Z,99.99
2017-07-03T01:01:02.076Z,99.99
2017-07-03T01:02:02.072Z,99.99
2017-07-03T01:03:02.067Z,99.99
2017-07-03T01:04:01.739Z,99.99
2017-07-03T01:05:01.742Z,99.99
2017-07-03T01:06:01.743Z,99.99
2017-07-03T01:07:02.057Z,99.99
2017-07-03T01:08:02.050Z,99.99
2017-07-03T01:09:01.709Z,99.99
2017-07-03T01:10:02.047Z,99.99
2017-07-03T01:11:01.695Z,99.99
2017-07-03T01:12:02.013Z,99.99
2017-07-03T01:13:02.006Z,99.99
2017-07-03T01:14:01.679Z,99.99
2017-07-03T01:15:01.682Z,99.99
2017-07-03T01:16:01.996Z,99.99
2017-07-03T01:17:01.667Z,99.99
2017-07-03T01:18:01.980Z,99.99
2017-07-03T01:19:01.975Z,99.99
2017-07-03T01:20:01.969Z,99.99
2017-07-03T01:21:01.964Z,99.99
2017-07-03T01:22:01.636Z,99.99
2017-07-03T01:23:01.952Z,99.99
2017-07-03T01:24:01.948Z,99.99
2017-07-03T01:25:01.940Z,99.99
2017-07-03T01:26:01.614Z,99.99
2017-07-03T01:27:01.959Z,99.99
2017-07-03T01:28:01.932Z,99.99
2017-07-03T01:29:01.917Z,99.99
2017-07-03T01:30:01.587Z,99.99
2017-07-03T01:31:01.584Z,99.99
2017-07-03T01:32:01.592Z,99.99
2017-07-03T01:33:01.898Z,99.99
2017-07-03T01:34:01.884Z,99.99
2017-07-03T01:35:01.604Z,99.99
2017-07-03T01:36:01.878Z,99.99
2017-07-03T01:37:01.876Z,99.99
2017-07-03T01:38:01.864Z,99.99
2017-07-03T01:39:01.859Z,99.99
2017-07-03T01:40:01.872Z,99.99
2017-07-03T01:41:01.845Z,99.99
2017-07-03T01:42:01.866Z,99.99
2017-07-03T01:43:01.520Z,99.99
2017-07-03T01:44:01.835Z,99.99
2017-07-03T01:45:01.823Z,99.99
2017-07-03T01:46:01.820Z,99.99
2017-07-03T01:47:01.818Z,99.99
2017-07-03T01:48:01.818Z,99.99
2017-07-03T01:49:01.803Z,99.99
2017-07-03T01:50:01.798Z,99.99
2017-07-03T01:51:01.802Z,99.99
2017-07-03T01:52:01.808Z,99.99
2017-07-03T01:53:01.792Z,99.99
2017-07-03T01:54:01.470Z,99.99
2017-07-03T01:55:01.447Z,99.99
2017-07-03T01:56:01.759Z,99.99
2017-07-03T01:57:01.761Z,99.99
2017-07-03T01:58:01.753Z,99.99
2017-07-03T01:59:01.786Z,99.99
2017-07-03T02:00:01.745Z,99.99
2017-07-03T02:01:01.738Z,99.99
2017-07-03T02:02:01.737Z,99.99
2017-07-03T02:03:01.409Z,99.99
2017-07-03T02:04:01.716Z,99.99
2017-07-03T02:05:01.707Z,99.99
2017-07-03T02:06:01.381Z,99.99
2017-07-03T02:07:01.696Z,99.99
2017-07-03T02:08:01.701Z,99.99
2017-07-03T02:09:01.683Z,99.99
2017-07-03T02:10:01.681Z,99.99
2017-07-03T02:11:01.350Z,99.99
2017-07-03T02:12:01.678Z,99.99
2017-07-03T02:13:01.662Z,99.99
2017-07-03T02:14:01.653Z,99.99
2017-07-03T02:15:01.647Z,99.99
2017-07-03T02:16:01.651Z,99.99
2017-07-03T02:17:01.637Z,99.99
2017-07-03T02:18:01.309Z,99.99
2017-07-03T02:19:01.302Z,99.99
2017-07-03T02:20:01.296Z,99.99
2017-07-03T02:21:01.615Z,99.99
2017-07-03T02:22:01.607Z,99.99
2017-07-03T02:23:01.283Z,99.99
2017-07-03T02:24:01.596Z,99.99
2017-07-03T02:25:01.610Z,99.99
2017-07-03T02:26:01.586Z,99.99
2017-07-03T02:27:01.589Z,99.99
2017-07-03T02:28:01.310Z,99.99
2017-07-03T02:29:01.564Z,99.99
2017-07-03T02:30:01.568Z,99.99
2017-07-03T02:31:01.234Z,99.99
2017-07-03T02:32:01.549Z,99.99
2017-07-03T02:33:01.551Z,99.99
2017-07-03T02:34:01.539Z,99.99
2017-07-03T02:35:01.537Z,99.99
2017-07-03T02:36:01.534Z,99.99
2017-07-03T02:37:01.526Z,99.99
2017-07-03T02:38:01.530Z,99.99
2017-07-03T02:39:01.508Z,99.99
2017-07-03T02:40:01.503Z,99.99
2017-07-03T02:41:01.495Z,99.99
2017-07-03T02:42:01.491Z,99.99
2017-07-03T02:43:01.505Z,99.99
2017-07-03T02:44:01.157Z,99.99
2017-07-03T02:45:01.470Z,99.99
2017-07-03T02:46:01.473Z,99.99
2017-07-03T02:47:01.457Z,99.99
2017-07-03T02:48:01.454Z,99.99
2017-07-03T02:49:01.130Z,99.99
2017-07-03T02:50:01.461Z,99.99
2017-07-03T02:51:01.439Z,99.99
2017-07-03T02:52:01.430Z,99.99
2017-07-03T02:53:01.474Z,99.99
2017-07-03T02:54:01.418Z,99.99
2017-07-03T02:55:01.411Z,99.99
2017-07-03T02:56:01.402Z,99.99
2017-07-03T02:57:01.407Z,99.99
2017-07-03T02:58:01.395Z,99.99
2017-07-03T02:59:01.384Z,99.99
2017-07-03T03:00:01.379Z,99.99
2017-07-03T03:01:01.374Z,99.99
2017-07-03T03:02:01.047Z,99.99
2017-07-03T03:03:01.363Z,99.99
2017-07-03T03:04:01.356Z,99.99
2017-07-03T03:05:01.030Z,99.99
2017-07-03T03:06:01.344Z,99.99
2017-07-03T03:07:01.336Z,99.99
2017-07-03T03:08:01.010Z,99.99
2017-07-03T03:09:01.322Z,99.99
2017-07-03T03:10:00.999Z,99.99
2017-07-03T03:11:01.309Z,99.99
2017-07-03T03:12:01.001Z,99.99
2017-07-03T03:13:01.306Z,99.99
2017-07-03T03:14:00.983Z,99.99
2017-07-03T03:15:01.292Z,99.99
2017-07-03T03:16:01.277Z,99.99
2017-07-03T03:17:01.387Z,99.99
2017-07-03T03:18:01.278Z,99.99
2017-07-03T03:19:01.263Z,99.99
2017-07-03T03:20:01.255Z,99.99
2017-07-03T03:21:01.254Z,99.99
2017-07-03T03:22:01.262Z,99.99
2017-07-03T03:23:01.268Z,99.99
2017-07-03T03:24:00.924Z,99.99
2017-07-03T03:25:01.225Z,99.99
2017-07-03T03:26:01.248Z,99.99
2017-07-03T03:27:01.212Z,99.99
2017-07-03T03:28:00.887Z,99.99
2017-07-03T03:29:01.208Z,99.99
2017-07-03T03:30:01.196Z,99.99
2017-07-03T03:31:00.866Z,99.99
2017-07-03T03:32:01.239Z,99.99
2017-07-03T03:33:01.203Z,99.99
2017-07-03T03:34:01.171Z,99.99
2017-07-03T03:35:01.177Z,99.99
2017-07-03T03:36:01.188Z,99.99
2017-07-03T03:37:01.152Z,99.99
2017-07-03T03:38:01.160Z,99.99
2017-07-03T03:39:01.137Z,99.99
2017-07-03T03:40:01.132Z,99.99
2017-07-03T03:41:01.126Z,99.99
2017-07-03T03:42:00.796Z,99.99
2017-07-03T03:43:00.799Z,99.99
2017-07-03T03:44:00.784Z,99.99
2017-07-03T03:45:01.139Z,99.99
2017-07-03T03:46:01.098Z,99.99
2017-07-03T03:47:00.767Z,99.99
2017-07-03T03:48:01.098Z,99.99
2017-07-03T03:49:01.081Z,99.99
2017-07-03T03:50:01.092Z,99.99
2017-07-03T03:51:01.064Z,99.99
2017-07-03T03:52:01.057Z,99.99
2017-07-03T03:53:01.067Z,99.99
2017-07-03T03:54:01.069Z,99.99
2017-07-03T03:55:00.721Z,99.99
2017-07-03T03:56:01.038Z,99.99
2017-07-03T03:57:01.026Z,99.99
2017-07-03T03:58:01.026Z,99.99
2017-07-03T03:59:01.014Z,99.99
2017-07-03T04:00:01.011Z,99.99
2017-07-03T04:01:01.005Z,99.99
2017-07-03T04:02:01.003Z,99.99
2017-07-03T04:03:00.999Z,99.99
2017-07-03T04:04:00.990Z,99.99
2017-07-03T04:05:00.979Z,99.99
2017-07-03T04:06:00.651Z,99.99
2017-07-03T04:07:00.646Z,99.99
2017-07-03T04:08:00.647Z,99.99
2017-07-03T04:09:00.960Z,99.99
2017-07-03T04:10:00.950Z,99.99
2017-07-03T04:11:00.625Z,99.99
2017-07-03T04:12:00.941Z,99.99
2017-07-03T04:13:00.960Z,99.99
2017-07-03T04:14:00.932Z,99.99
2017-07-03T04:15:00.921Z,99.99
2017-07-03T04:16:00.919Z,99.99
2017-07-03T04:17:00.953Z,99.99
2017-07-03T04:18:00.904Z,99.99
2017-07-03T04:19:00.901Z,99.99
2017-07-03T04:20:00.893Z,99.99
2017-07-03T04:21:00.569Z,99.99
2017-07-03T04:22:00.886Z,99.99
2017-07-03T04:23:00.893Z,99.99
2017-07-03T04:24:00.552Z,99.99
2017-07-03T04:25:00.865Z,99.99
2017-07-03T04:26:00.863Z,99.99
2017-07-03T04:27:00.857Z,99.99
2017-07-03T04:28:00.575Z,99.99
2017-07-03T04:29:00.859Z,99.99
2017-07-03T04:30:00.518Z,99.99
2017-07-03T04:31:00.838Z,99.99
2017-07-03T04:32:00.506Z,99.99
2017-07-03T04:33:00.876Z,99.99
2017-07-03T04:34:00.823Z,99.99
2017-07-03T04:35:00.826Z,99.99
2017-07-03T04:36:00.809Z,99.99
2017-07-03T04:37:00.821Z,99.99
2017-07-03T04:38:00.799Z,99.99
2017-07-03T04:39:00.792Z,99.99
2017-07-03T04:40:00.782Z,99.99
2017-07-03T04:41:00.777Z,99.99
2017-07-03T04:42:00.776Z,99.99
2017-07-03T04:43:00.445Z,99.99
2017-07-03T04:44:00.440Z,99.99
2017-07-03T04:45:00.434Z,99.99
2017-07-03T04:46:00.751Z,99.99
2017-07-03T04:47:00.744Z,99.99
2017-07-03T04:48:00.754Z,99.99
2017-07-03T04:49:00.734Z,99.99
2017-07-03T04:50:00.734Z,99.99
2017-07-03T04:51:00.735Z,99.99
2017-07-03T04:52:00.720Z,99.99
2017-07-03T04:53:00.714Z,99.99
2017-07-03T04:54:00.719Z,99.99
2017-07-03T04:55:00.399Z,99.99
2017-07-03T04:56:00.700Z,99.99
2017-07-03T04:57:00.700Z,99.99
2017-07-03T04:58:00.370Z,99.99
2017-07-03T04:59:00.700Z,99.99
2017-07-03T05:00:00.375Z,99.99
2017-07-03T05:01:00.692Z,99.99
2017-07-03T05:02:00.672Z,99.99
2017-07-03T05:03:00.685Z,99.99
2017-07-03T05:04:00.662Z,99.99
2017-07-03T05:05:00.658Z,99.99
2017-07-03T05:06:00.331Z,99.99
2017-07-03T05:07:00.676Z,99.99
2017-07-03T05:08:00.647Z,99.99
2017-07-03T05:09:00.338Z,99.99
2017-07-03T05:10:00.655Z,99.99
2017-07-03T05:11:00.308Z,99.99
2017-07-03T05:12:00.623Z,99.99
2017-07-03T05:13:00.620Z,99.99
2017-07-03T05:14:00.294Z,99.99
2017-07-03T05:15:00.618Z,99.99
2017-07-03T05:16:00.608Z,99.99
2017-07-03T05:17:00.607Z,99.99
2017-07-03T05:18:00.276Z,99.99
2017-07-03T05:19:00.594Z,99.99
2017-07-03T05:20:00.589Z,99.99
2017-07-03T05:21:00.593Z,99.99
2017-07-03T05:22:00.586Z,99.99
2017-07-03T05:23:00.253Z,99.99
2017-07-03T05:24:00.578Z,99.99
2017-07-03T05:25:00.574Z,99.99
2017-07-03T05:26:00.239Z,99.99
2017-07-03T05:27:00.557Z,99.99
2017-07-03T05:28:00.230Z,99.99
2017-07-03T05:29:00.226Z,99.99
2017-07-03T05:30:00.547Z,99.99
2017-07-03T05:31:00.541Z,99.99
2017-07-03T05:32:00.215Z,99.99
2017-07-03T05:33:00.533Z,99.99
2017-07-03T05:34:00.209Z,99.99
2017-07-03T05:35:00.201Z,99.99
2017-07-03T05:36:00.195Z,99.99
2017-07-03T05:37:00.514Z,99.99
2017-07-03T05:38:00.510Z,99.99
2017-07-03T05:39:00.186Z,99.99
2017-07-03T05:40:00.183Z,99.99
2017-07-03T05:41:00.499Z,99.99
2017-07-03T05:42:00.493Z,99.99
2017-07-03T05:43:00.493Z,99.99
2017-07-03T05:44:00.164Z,99.99
2017-07-03T05:45:00.482Z,99.1
2017-07-03T05:46:00.161Z,98.52
2017-07-03T05:47:00.476Z,98.33
2017-07-03T05:48:00.472Z,97.47
2017-07-03T05:49:00.468Z,96.8
2017-07-03T05:50:00.478Z,95.94
2017-07-03T05:51:00.459Z,95.36
2017-07-03T05:52:00.455Z,94.89
2017-07-03T05:53:00.450Z,95.27
2017-07-03T05:54:00.448Z,95.84
2017-07-03T05:55:00.445Z,97.9
2017-07-03T05:56:00.443Z,98.19
2017-07-03T05:57:00.438Z,98.09
2017-07-03T05:58:00.114Z,98.47
2017-07-03T05:59:00.434Z,98.24
2017-07-03T06:00:00.427Z,98.24
2017-07-03T06:01:00.104Z,99
2017-07-03T06:02:00.096Z,99.48
2017-07-03T06:03:00.092Z,99.57
2017-07-03T06:04:00.410Z,99.48
2017-07-03T06:05:00.408Z,98.33
2017-07-03T06:06:00.404Z,98.43
2017-07-03T06:07:00.399Z,99.19
2017-07-03T06:08:00.396Z,99.96
2017-07-03T06:09:00.069Z,98.9
2017-07-03T06:10:00.386Z,98.24
2017-07-03T06:11:00.389Z,97.9
2017-07-03T06:12:00.383Z,95.79
2017-07-03T06:13:00.069Z,91.92
2017-07-03T06:14:00.372Z,91.2
2017-07-03T06:15:00.367Z,91.39
2017-07-03T06:16:00.373Z,92.16
2017-07-03T06:17:00.360Z,93.02
2017-07-03T06:18:00.359Z,93.4
2017-07-03T06:19:00.358Z,93.79
2017-07-03T06:20:00.348Z,93.02
2017-07-03T06:21:00.025Z,92.69
2017-07-03T06:22:00.342Z,93.64
2017-07-03T06:23:00.018Z,94.12
2017-07-03T06:24:00.334Z,92.97
2017-07-03T06:25:00.008Z,93.35
2017-07-03T06:26:00.003Z,94.12
2017-07-03T06:27:00.320Z,96.08
2017-07-03T06:28:00.322Z,96.84
2017-07-03T06:29:00.314Z,98.09
2017-07-03T06:30:00.313Z,97.61
2017-07-03T06:31:00.309Z,97.42
2017-07-03T06:32:00.326Z,96.56
2017-07-03T06:33:00.299Z,96.84
2017-07-03T06:33:59.972Z,96.22
2017-07-03T06:35:00.296Z,95.46
2017-07-03T06:36:00.298Z,90.77
2017-07-03T06:37:00.291Z,90.09
2017-07-03T06:38:00.279Z,87.27
2017-07-03T06:39:00.279Z,86.12
2017-07-03T06:40:00.273Z,85.16
2017-07-03T06:41:00.276Z,84.05
2017-07-03T06:42:00.282Z,82.56
2017-07-03T06:42:59.948Z,82.03
2017-07-03T06:43:59.943Z,81.64
2017-07-03T06:45:00.310Z,81.4
2017-07-03T06:46:00.257Z,79.91
2017-07-03T06:47:00.254Z,78
2017-07-03T06:48:00.252Z,78.67
2017-07-03T06:49:00.250Z,80.07
2017-07-03T06:50:00.244Z,83.29
2017-07-03T06:51:00.245Z,84.91
2017-07-03T06:51:59.923Z,84.11
2017-07-03T06:53:00.242Z,81.9
2017-07-03T06:54:00.233Z,84.68
2017-07-03T06:55:00.236Z,85.79
2017-07-03T06:56:00.281Z,86.84
2017-07-03T06:57:00.226Z,85.98
2017-07-03T06:58:00.228Z,87.13
2017-07-03T06:58:59.897Z,86.74
2017-07-03T07:00:00.221Z,86.55
2017-07-03T07:01:00.219Z,87.65
2017-07-03T07:01:59.891Z,88.51
2017-07-03T07:03:00.209Z,87.17
2017-07-03T07:03:59.883Z,84.91
2017-07-03T07:05:00.204Z,81.64
2017-07-03T07:05:59.879Z,78.52
2017-07-03T07:07:00.212Z,77.17
2017-07-03T07:07:59.886Z,78.32
2017-07-03T07:08:59.874Z,77.56
2017-07-03T07:09:59.871Z,74.69
2017-07-03T07:11:00.225Z,68.32
2017-07-03T07:12:00.190Z,64.28
2017-07-03T07:12:59.872Z,58.55
2017-07-03T07:13:59.863Z,54.07
2017-07-03T07:15:00.186Z,50.65
2017-07-03T07:15:59.913Z,50.28
2017-07-03T07:16:59.862Z,49.7
2017-07-03T07:17:59.867Z,47.99
2017-07-03T07:18:59.867Z,48.59
2017-07-03T07:20:00.186Z,50.7
2017-07-03T07:21:00.188Z,52.09
2017-07-03T07:22:00.188Z,53.01
2017-07-03T07:23:00.188Z,53.66
2017-07-03T07:24:00.205Z,55.66
2017-07-03T07:25:00.192Z,57.37
2017-07-03T07:26:00.209Z,58.01
2017-07-03T07:27:00.215Z,58.47
2017-07-03T07:28:00.197Z,59.84
2017-07-03T07:29:00.192Z,57.1
2017-07-03T07:30:00.207Z,50.11
2017-07-03T07:31:00.194Z,46.1
2017-07-03T07:31:59.877Z,43.34
2017-07-03T07:33:00.197Z,41.52
2017-07-03T07:34:00.200Z,38.93
2017-07-03T07:35:00.223Z,38.85
2017-07-03T07:35:59.904Z,36.83
2017-07-03T07:37:00.209Z,36.76
2017-07-03T07:38:00.208Z,38.42
2017-07-03T07:39:00.214Z,36.89
2017-07-03T07:39:59.894Z,35.25
2017-07-03T07:41:00.219Z,36.21
2017-07-03T07:42:00.221Z,39.11
2017-07-03T07:43:00.227Z,39.01
2017-07-03T07:44:00.230Z,39.9
2017-07-03T07:45:00.233Z,40.09
2017-07-03T07:45:59.915Z,40.92
2017-07-03T07:47:00.238Z,43.02
2017-07-03T07:48:00.241Z,43.37
2017-07-03T07:48:59.926Z,43.32
2017-07-03T07:50:00.251Z,46.08
2017-07-03T07:51:00.270Z,49.73
2017-07-03T07:52:00.257Z,51.15
2017-07-03T07:53:00.304Z,51.2
2017-07-03T07:53:59.941Z,51.68
2017-07-03T07:55:00.264Z,53.87
2017-07-03T07:56:00.268Z,52.23
2017-07-03T07:57:00.269Z,51.07
2017-07-03T07:57:59.952Z,50.95
2017-07-03T07:59:00.273Z,52.66
2017-07-03T08:00:00.276Z,53.31
2017-07-03T08:00:59.953Z,55.04
2017-07-03T08:02:00.290Z,55.26
2017-07-03T08:03:00.280Z,54.3
2017-07-03T08:03:59.962Z,55.35
2017-07-03T08:05:00.281Z,57.06
2017-07-03T08:05:59.961Z,58.28
2017-07-03T08:07:00.287Z,57.6
2017-07-03T08:08:00.296Z,57
2017-07-03T08:08:59.962Z,58.06
2017-07-03T08:10:00.286Z,55.24
2017-07-03T08:10:59.964Z,54.53
2017-07-03T08:11:59.977Z,53.59
2017-07-03T08:12:59.965Z,52.87
2017-07-03T08:14:00.292Z,50.45
2017-07-03T08:14:59.966Z,47.5
2017-07-03T08:16:00.289Z,45.89
2017-07-03T08:17:00.290Z,45.81
2017-07-03T08:18:00.290Z,44.67
2017-07-03T08:19:00.291Z,43.15
2017-07-03T08:19:59.970Z,41.62
2017-07-03T08:21:00.289Z,40.65
2017-07-03T08:22:00.292Z,38.91
2017-07-03T08:23:00.316Z,40.15
2017-07-03T08:24:00.297Z,41.29
2017-07-03T08:24:59.970Z,41.75
2017-07-03T08:26:00.301Z,43.08
2017-07-03T08:27:00.295Z,46.06
2017-07-03T08:27:59.981Z,47.29
2017-07-03T08:28:59.971Z,47.58
2017-07-03T08:30:00.292Z,47.17
2017-07-03T08:31:00.296Z,51.77
2017-07-03T08:32:00.301Z,53.29
2017-07-03T08:33:00.294Z,51.56
2017-07-03T08:34:00.314Z,52.69
2017-07-03T08:35:00.289Z,52.87
2017-07-03T08:36:00.291Z,54.75
2017-07-03T08:36:59.970Z,55.9
2017-07-03T08:37:59.971Z,55.4
2017-07-03T08:38:59.989Z,57.32
2017-07-03T08:39:59.974Z,58.06
2017-07-03T08:40:59.967Z,57.17
2017-07-03T08:42:00.295Z,57.93
2017-07-03T08:43:00.292Z,56.37
2017-07-03T08:44:00.290Z,56.18
2017-07-03T08:45:00.311Z,56.82
2017-07-03T08:46:00.290Z,58.26
2017-07-03T08:47:00.288Z,55.96
2017-07-03T08:48:00.301Z,57.78
2017-07-03T08:49:00.284Z,59.89
2017-07-03T08:50:00.287Z,62.23
2017-07-03T08:51:00.286Z,60.43
2017-07-03T08:52:00.282Z,58.13
2017-07-03T08:52:59.971Z,53.54
2017-07-03T08:54:00.282Z,49.33
2017-07-03T08:54:59.982Z,47.41
2017-07-03T08:56:00.277Z,48.76
2017-07-03T08:56:59.960Z,51.07
2017-07-03T08:58:00.278Z,52.12
2017-07-03T08:59:00.279Z,52.12
2017-07-03T09:00:00.282Z,51.64
2017-07-03T09:00:59.955Z,50.71
2017-07-03T09:02:00.279Z,49.96
2017-07-03T09:03:00.277Z,51.48
2017-07-03T09:04:00.322Z,51.48
2017-07-03T09:05:00.276Z,53.28
2017-07-03T09:05:59.954Z,54.63
2017-07-03T09:06:59.950Z,53.54
2017-07-03T09:08:00.274Z,53.32
2017-07-03T09:08:59.964Z,54.93
2017-07-03T09:10:00.284Z,55.89
2017-07-03T09:11:00.272Z,54.23
2017-07-03T09:11:59.952Z,55.57
2017-07-03T09:13:00.270Z,56.82
2017-07-03T09:14:00.284Z,55.77
2017-07-03T09:14:59.948Z,57.9
2017-07-03T09:16:00.267Z,56.66
2017-07-03T09:17:00.268Z,58.32
2017-07-03T09:18:00.266Z,57.26
2017-07-03T09:19:00.262Z,55.85
2017-07-03T09:20:00.290Z,57.1
2017-07-03T09:21:00.262Z,51.43
2017-07-03T09:22:00.260Z,55.94
2017-07-03T09:23:00.259Z,54.6
2017-07-03T09:24:00.258Z,54.02
2017-07-03T09:24:59.933Z,53.25
2017-07-03T09:25:59.933Z,54.34
2017-07-03T09:26:59.934Z,52.51
2017-07-03T09:28:00.257Z,53.57
2017-07-03T09:29:00.255Z,53.38
2017-07-03T09:30:00.257Z,53.78
2017-07-03T09:30:59.929Z,54.08
2017-07-03T09:32:00.255Z,55.16
2017-07-03T09:33:00.254Z,58.37
2017-07-03T09:33:59.926Z,54.13
2017-07-03T09:35:00.247Z,53.65
2017-07-03T09:35:59.928Z,54.32
2017-07-03T09:36:59.925Z,54.93
2017-07-03T09:37:59.925Z,52.71
2017-07-03T09:39:00.249Z,53.67
2017-07-03T09:39:59.941Z,54.35
2017-07-03T09:41:00.250Z,52.64
2017-07-03T09:42:00.258Z,49.84
2017-07-03T09:43:00.253Z,49.53
2017-07-03T09:44:00.249Z,46.55
2017-07-03T09:45:00.250Z,46.73
2017-07-03T09:45:59.927Z,47
2017-07-03T09:47:00.249Z,48.43
2017-07-03T09:48:00.253Z,50.23
2017-07-03T09:49:00.251Z,53.11
2017-07-03T09:49:59.928Z,53.5
2017-07-03T09:51:00.249Z,53.31
2017-07-03T09:51:59.945Z,52.34
2017-07-03T09:53:00.249Z,51.79
2017-07-03T09:54:00.262Z,50.45
2017-07-03T09:55:00.249Z,48.03
2017-07-03T09:56:00.271Z,51.19
2017-07-03T09:57:00.252Z,53.31
2017-07-03T09:58:00.248Z,53.5
2017-07-03T09:59:00.248Z,52.25
2017-07-03T10:00:00.250Z,53.5
2017-07-03T10:01:00.262Z,53.69
2017-07-03T10:02:00.248Z,54.75
2017-07-03T10:03:00.256Z,53.69
2017-07-03T10:04:00.244Z,53.11
2017-07-03T10:05:00.247Z,51.7
2017-07-03T10:06:00.246Z,58.34
2017-07-03T10:07:00.254Z,57.37
2017-07-03T10:08:00.250Z,56.54
2017-07-03T10:09:00.247Z,55.12
2017-07-03T10:10:00.249Z,48.01
2017-07-03T10:11:00.263Z,46.95
2017-07-03T10:12:00.252Z,46.08
2017-07-03T10:13:00.254Z,45.87
2017-07-03T10:14:00.261Z,46.52
2017-07-03T10:14:59.947Z,48.33
2017-07-03T10:15:59.944Z,48.23
2017-07-03T10:17:00.247Z,47.94
2017-07-03T10:17:59.927Z,48.23
2017-07-03T10:18:59.926Z,47.29
2017-07-03T10:19:59.929Z,46.14
2017-07-03T10:21:00.256Z,46.23
2017-07-03T10:22:00.249Z,47.67
2017-07-03T10:23:00.251Z,48.25
2017-07-03T10:24:00.265Z,49.79
2017-07-03T10:25:00.253Z,45.39
2017-07-03T10:26:00.252Z,45.36
2017-07-03T10:27:00.251Z,45.56
2017-07-03T10:28:00.252Z,46.5
2017-07-03T10:28:59.930Z,46.78
2017-07-03T10:30:00.255Z,46.5
2017-07-03T10:31:00.252Z,47.46
2017-07-03T10:31:59.930Z,49.68
2017-07-03T10:32:59.930Z,49.7
2017-07-03T10:34:00.260Z,48.44
2017-07-03T10:35:00.272Z,48.54
2017-07-03T10:35:59.930Z,46.81
2017-07-03T10:37:00.253Z,48.93
2017-07-03T10:37:59.932Z,49.99
2017-07-03T10:38:59.930Z,48.57
2017-07-03T10:40:00.250Z,47.7
2017-07-03T10:41:00.255Z,47.14
2017-07-03T10:42:00.298Z,47.24
2017-07-03T10:43:00.251Z,46.56
2017-07-03T10:43:59.932Z,46.66
2017-07-03T10:45:00.257Z,46.18
2017-07-03T10:45:59.931Z,44.64
2017-07-03T10:47:00.252Z,44.23
2017-07-03T10:48:00.256Z,45.56
2017-07-03T10:49:00.268Z,46.59
2017-07-03T10:49:59.952Z,48.88
2017-07-03T10:51:00.254Z,51.19
2017-07-03T10:52:00.253Z,51.38
2017-07-03T10:53:00.256Z,48.52
2017-07-03T10:54:00.256Z,49.77
2017-07-03T10:54:59.939Z,52.11
2017-07-03T10:56:00.260Z,51.05
2017-07-03T10:57:00.260Z,47.87
2017-07-03T10:58:00.257Z,49.91
2017-07-03T10:59:00.274Z,50.01
2017-07-03T11:00:00.321Z,48.47
2017-07-03T11:00:59.953Z,46.64
2017-07-03T11:02:00.257Z,49.82
2017-07-03T11:03:00.256Z,46.83
2017-07-03T11:04:00.259Z,48.47
2017-07-03T11:05:00.257Z,47.6
2017-07-03T11:05:59.947Z,43.96
2017-07-03T11:07:00.257Z,43.29
2017-07-03T11:08:00.267Z,43.96
2017-07-03T11:08:59.957Z,45.89
2017-07-03T11:10:00.259Z,43.96
2017-07-03T11:11:00.280Z,44.27
2017-07-03T11:11:59.940Z,45.72
2017-07-03T11:13:00.264Z,46.49
2017-07-03T11:14:00.262Z,45.43
2017-07-03T11:15:00.263Z,44.95
2017-07-03T11:16:00.266Z,45.21
2017-07-03T11:16:59.949Z,44.25
2017-07-03T11:17:59.944Z,44.71
2017-07-03T11:19:00.264Z,45.48
2017-07-03T11:20:00.266Z,45.46
2017-07-03T11:20:59.944Z,44.59
2017-07-03T11:22:00.269Z,45.17
2017-07-03T11:22:59.947Z,44.02
2017-07-03T11:24:00.266Z,43.24
2017-07-03T11:24:59.962Z,45.46
2017-07-03T11:25:59.947Z,46.15
2017-07-03T11:27:00.272Z,46.64
2017-07-03T11:28:00.272Z,47.12
2017-07-03T11:29:00.292Z,51.2
2017-07-03T11:30:00.273Z,43.94
2017-07-03T11:30:59.949Z,44.9
2017-07-03T11:32:00.273Z,46.55
2017-07-03T11:33:00.324Z,48.74
2017-07-03T11:34:00.271Z,51.17
2017-07-03T11:35:00.276Z,50.59
2017-07-03T11:36:00.273Z,46.86
2017-07-03T11:37:00.272Z,44.64
2017-07-03T11:38:00.278Z,45.99
2017-07-03T11:39:00.272Z,44.62
2017-07-03T11:40:00.293Z,45.1
2017-07-03T11:40:59.954Z,46.06
2017-07-03T11:41:59.961Z,48.66
2017-07-03T11:43:00.310Z,44.32
2017-07-03T11:44:00.008Z,44.42
2017-07-03T11:44:59.954Z,47.22
2017-07-03T11:46:00.279Z,47.41
2017-07-03T11:47:00.280Z,44.52
2017-07-03T11:48:00.296Z,42.59
2017-07-03T11:49:00.282Z,43.37
2017-07-03T11:50:00.283Z,43.1
2017-07-03T11:51:00.283Z,47.7
2017-07-03T11:52:00.282Z,47.41
2017-07-03T11:53:00.286Z,45.97
2017-07-03T11:54:00.300Z,46.64
2017-07-03T11:55:00.285Z,46.06
2017-07-03T11:56:00.283Z,44.9
2017-07-03T11:56:59.986Z,42.97
2017-07-03T11:58:00.289Z,43.27
2017-07-03T11:59:00.288Z,45.97
2017-07-03T11:59:59.971Z,48.57
2017-07-03T12:00:59.966Z,46.83
2017-07-03T12:02:00.301Z,46.66
2017-07-03T12:03:00.309Z,47.03
2017-07-03T12:03:59.967Z,45.79
2017-07-03T12:05:00.306Z,47.6
2017-07-03T12:06:00.291Z,49.43
2017-07-03T12:06:59.974Z,49.55
2017-07-03T12:08:00.299Z,44.04
2017-07-03T12:09:00.294Z,45.1
2017-07-03T12:10:00.292Z,46.25
2017-07-03T12:11:00.295Z,46.55
2017-07-03T12:12:00.296Z,48.16
2017-07-03T12:12:59.977Z,47.6
2017-07-03T12:13:59.973Z,49.53
2017-07-03T12:14:59.993Z,46.64
2017-07-03T12:16:00.307Z,46.93
2017-07-03T12:17:00.296Z,48.66
2017-07-03T12:18:00.296Z,48.88
2017-07-03T12:19:00.313Z,46.28
2017-07-03T12:20:00.299Z,46.08
2017-07-03T12:21:00.300Z,48.49
2017-07-03T12:22:00.298Z,44.93
2017-07-03T12:22:59.977Z,46.08
2017-07-03T12:24:00.301Z,44.64
2017-07-03T12:24:59.977Z,45.51
2017-07-03T12:25:59.980Z,45.51
2017-07-03T12:26:59.980Z,41.65
2017-07-03T12:28:00.303Z,42.03
2017-07-03T12:28:59.982Z,43.58
2017-07-03T12:30:00.304Z,43.27
2017-07-03T12:30:59.985Z,44.64
2017-07-03T12:32:00.305Z,45
2017-07-03T12:32:59.988Z,45.68
2017-07-03T12:34:00.306Z,46.35
2017-07-03T12:35:00.308Z,43.55
2017-07-03T12:36:00.308Z,40.66
2017-07-03T12:37:00.305Z,41.92
2017-07-03T12:38:00.312Z,42.47
2017-07-03T12:39:00.309Z,44.49
2017-07-03T12:40:00.007Z,44.21
2017-07-03T12:40:59.990Z,46.91
2017-07-03T12:42:00.312Z,44.89
2017-07-03T12:43:00.312Z,43.44
2017-07-03T12:44:00.309Z,42.97
2017-07-03T12:45:00.313Z,43.34
2017-07-03T12:46:00.312Z,46.35
2017-07-03T12:46:59.997Z,46.35
2017-07-03T12:47:59.996Z,45.48
2017-07-03T12:49:00.314Z,43.87
2017-07-03T12:50:00.315Z,42.88
2017-07-03T12:51:00.316Z,42.9
2017-07-03T12:51:59.996Z,41.65
2017-07-03T12:53:00.317Z,42.42
2017-07-03T12:54:00.316Z,43.46